sensor_id;sensor_type;location;lat;lon;timestamp;P1;durP1;ratioP1;P2;durP2;ratioP2
28192;SDS011;15473;50.840;3.396;2022-11-11T00:01:30;27.73;;;12.68;;
28192;SDS011;15473;50.840;3.396;2022-11-11T00:04:00;30.30;;;12.53;;
28192;SDS011;15473;50.840;3.396;2022-11-11T00:06:30;30.55;;;12.20;;
28192;SDS011;15473;50.840;3.396;2022-11-11T00:09:00;26.73;;;12.10;;
28192;SDS011;15473;50.840;3.396;2022-11-11T00:11:31;28.02;;;12.25;;
28192;SDS011;15473;50.840;3.396;2022-11-11T00:14:01;27.90;;;12.25;;
28192;SDS011;15473;50.840;3.396;2022-11-11T00:16:38;25.17;;;12.65;;
28192;SDS011;15473;50.840;3.396;2022-11-11T00:19:26;27.75;;;13.20;;
28192;SDS011;15473;50.840;3.396;2022-11-11T00:22:19;20.70;;;10.20;;
28192;SDS011;15473;50.840;3.396;2022-11-11T00:25:08;23.05;;;11.80;;
28192;SDS011;15473;50.840;3.396;2022-11-11T00:27:46;25.50;;;12.60;;
28192;SDS011;15473;50.840;3.396;2022-11-11T00:30:18;23.52;;;10.68;;
28192;SDS011;15473;50.840;3.396;2022-11-11T00:32:48;26.93;;;11.35;;
28192;SDS011;15473;50.840;3.396;2022-11-11T00:35:18;23.27;;;11.08;;
28192;SDS011;15473;50.840;3.396;2022-11-11T00:38:09;29.30;;;12.90;;
28192;SDS011;15473;50.840;3.396;2022-11-11T00:40:45;23.95;;;11.30;;
28192;SDS011;15473;50.840;3.396;2022-11-11T00:43:21;28.90;;;11.30;;
28192;SDS011;15473;50.840;3.396;2022-11-11T00:45:52;27.32;;;11.95;;
28192;SDS011;15473;50.840;3.396;2022-11-11T00:48:24;31.52;;;12.43;;
28192;SDS011;15473;50.840;3.396;2022-11-11T00:51:12;22.98;;;11.83;;
28192;SDS011;15473;50.840;3.396;2022-11-11T00:53:48;25.75;;;11.00;;
28192;SDS011;15473;50.840;3.396;2022-11-11T00:56:18;27.32;;;12.63;;
28192;SDS011;15473;50.840;3.396;2022-11-11T00:58:49;28.12;;;12.73;;
28192;SDS011;15473;50.840;3.396;2022-11-11T01:01:20;34.00;;;11.85;;
28192;SDS011;15473;50.840;3.396;2022-11-11T01:03:51;25.55;;;12.55;;
28192;SDS011;15473;50.840;3.396;2022-11-11T01:06:21;24.65;;;12.35;;
28192;SDS011;15473;50.840;3.396;2022-11-11T01:08:51;22.35;;;10.88;;
28192;SDS011;15473;50.840;3.396;2022-11-11T01:11:22;27.70;;;11.25;;
28192;SDS011;15473;50.840;3.396;2022-11-11T01:13:52;24.05;;;10.68;;
28192;SDS011;15473;50.840;3.396;2022-11-11T01:16:29;20.57;;;10.85;;
28192;SDS011;15473;50.840;3.396;2022-11-11T01:18:59;19.95;;;10.05;;
28192;SDS011;15473;50.840;3.396;2022-11-11T01:21:37;22.90;;;10.55;;
28192;SDS011;15473;50.840;3.396;2022-11-11T01:24:07;23.27;;;10.45;;
28192;SDS011;15473;50.840;3.396;2022-11-11T01:26:37;22.40;;;11.68;;
28192;SDS011;15473;50.840;3.396;2022-11-11T01:29:09;28.32;;;10.20;;
28192;SDS011;15473;50.840;3.396;2022-11-11T01:31:41;19.85;;;10.32;;
28192;SDS011;15473;50.840;3.396;2022-11-11T01:34:11;25.08;;;11.38;;
28192;SDS011;15473;50.840;3.396;2022-11-11T01:36:41;29.60;;;11.28;;
28192;SDS011;15473;50.840;3.396;2022-11-11T01:39:11;27.45;;;10.80;;
28192;SDS011;15473;50.840;3.396;2022-11-11T01:41:42;27.77;;;11.05;;
28192;SDS011;15473;50.840;3.396;2022-11-11T01:44:39;25.30;;;10.93;;
28192;SDS011;15473;50.840;3.396;2022-11-11T01:47:12;21.55;;;11.28;;
28192;SDS011;15473;50.840;3.396;2022-11-11T01:50:01;27.80;;;12.03;;
28192;SDS011;15473;50.840;3.396;2022-11-11T01:52:38;17.25;;;10.43;;
28192;SDS011;15473;50.840;3.396;2022-11-11T01:57:40;25.70;;;11.20;;
28192;SDS011;15473;50.840;3.396;2022-11-11T02:00:18;22.07;;;12.20;;
28192;SDS011;15473;50.840;3.396;2022-11-11T02:05:22;28.35;;;12.50;;
28192;SDS011;15473;50.840;3.396;2022-11-11T02:08:16;18.30;;;10.30;;
28192;SDS011;15473;50.840;3.396;2022-11-11T02:10:52;22.25;;;11.50;;
28192;SDS011;15473;50.840;3.396;2022-11-11T02:13:24;23.35;;;11.12;;
28192;SDS011;15473;50.840;3.396;2022-11-11T02:16:14;25.48;;;11.83;;
28192;SDS011;15473;50.840;3.396;2022-11-11T02:18:44;27.22;;;11.33;;
28192;SDS011;15473;50.840;3.396;2022-11-11T02:21:27;20.90;;;11.48;;
28192;SDS011;15473;50.840;3.396;2022-11-11T02:24:02;21.37;;;12.05;;
28192;SDS011;15473;50.840;3.396;2022-11-11T02:26:52;20.70;;;10.60;;
28192;SDS011;15473;50.840;3.396;2022-11-11T02:29:24;23.32;;;11.53;;
28192;SDS011;15473;50.840;3.396;2022-11-11T02:31:59;25.60;;;11.73;;
28192;SDS011;15473;50.840;3.396;2022-11-11T02:34:30;24.40;;;11.68;;
28192;SDS011;15473;50.840;3.396;2022-11-11T02:37:02;28.95;;;12.60;;
28192;SDS011;15473;50.840;3.396;2022-11-11T02:39:36;25.40;;;12.35;;
28192;SDS011;15473;50.840;3.396;2022-11-11T02:42:19;28.00;;;13.83;;
28192;SDS011;15473;50.840;3.396;2022-11-11T02:44:50;23.95;;;11.95;;
28192;SDS011;15473;50.840;3.396;2022-11-11T02:47:22;27.27;;;12.60;;
28192;SDS011;15473;50.840;3.396;2022-11-11T02:49:52;26.87;;;12.18;;
28192;SDS011;15473;50.840;3.396;2022-11-11T02:52:22;20.80;;;11.20;;
28192;SDS011;15473;50.840;3.396;2022-11-11T02:54:53;20.80;;;11.45;;
28192;SDS011;15473;50.840;3.396;2022-11-11T02:57:23;25.08;;;11.83;;
28192;SDS011;15473;50.840;3.396;2022-11-11T02:59:54;19.37;;;10.43;;
28192;SDS011;15473;50.840;3.396;2022-11-11T03:02:34;20.92;;;11.00;;
28192;SDS011;15473;50.840;3.396;2022-11-11T03:05:08;28.45;;;13.98;;
28192;SDS011;15473;50.840;3.396;2022-11-11T03:07:38;23.55;;;11.97;;
28192;SDS011;15473;50.840;3.396;2022-11-11T03:10:08;21.75;;;11.38;;
28192;SDS011;15473;50.840;3.396;2022-11-11T03:12:42;23.83;;;11.90;;
28192;SDS011;15473;50.840;3.396;2022-11-11T03:15:13;22.42;;;11.08;;
28192;SDS011;15473;50.840;3.396;2022-11-11T03:17:44;30.05;;;11.43;;
28192;SDS011;15473;50.840;3.396;2022-11-11T03:20:18;19.75;;;10.55;;
28192;SDS011;15473;50.840;3.396;2022-11-11T03:23:09;19.98;;;11.10;;
28192;SDS011;15473;50.840;3.396;2022-11-11T03:25:42;19.50;;;10.08;;
28192;SDS011;15473;50.840;3.396;2022-11-11T03:28:14;21.33;;;10.90;;
28192;SDS011;15473;50.840;3.396;2022-11-11T03:30:47;26.33;;;11.28;;
28192;SDS011;15473;50.840;3.396;2022-11-11T03:33:17;21.20;;;11.50;;
28192;SDS011;15473;50.840;3.396;2022-11-11T03:35:47;23.40;;;11.53;;
28192;SDS011;15473;50.840;3.396;2022-11-11T03:38:17;25.12;;;11.80;;
28192;SDS011;15473;50.840;3.396;2022-11-11T03:40:54;20.02;;;11.35;;
28192;SDS011;15473;50.840;3.396;2022-11-11T03:43:27;22.60;;;11.03;;
28192;SDS011;15473;50.840;3.396;2022-11-11T03:46:06;24.00;;;11.03;;
28192;SDS011;15473;50.840;3.396;2022-11-11T03:48:39;26.57;;;12.58;;
28192;SDS011;15473;50.840;3.396;2022-11-11T03:51:09;21.48;;;11.90;;
28192;SDS011;15473;50.840;3.396;2022-11-11T03:53:39;21.75;;;11.35;;
28192;SDS011;15473;50.840;3.396;2022-11-11T03:56:16;24.65;;;11.05;;
28192;SDS011;15473;50.840;3.396;2022-11-11T03:58:48;22.52;;;11.08;;
28192;SDS011;15473;50.840;3.396;2022-11-11T04:01:19;21.02;;;10.60;;
28192;SDS011;15473;50.840;3.396;2022-11-11T04:04:07;23.30;;;12.28;;
28192;SDS011;15473;50.840;3.396;2022-11-11T04:06:57;21.02;;;10.85;;
28192;SDS011;15473;50.840;3.396;2022-11-11T04:09:45;24.70;;;12.00;;
28192;SDS011;15473;50.840;3.396;2022-11-11T04:12:33;20.52;;;11.12;;
28192;SDS011;15473;50.840;3.396;2022-11-11T04:15:07;24.67;;;12.05;;
28192;SDS011;15473;50.840;3.396;2022-11-11T04:17:55;21.37;;;10.48;;
28192;SDS011;15473;50.840;3.396;2022-11-11T04:20:25;20.35;;;10.53;;
28192;SDS011;15473;50.840;3.396;2022-11-11T04:23:13;31.20;;;12.58;;
28192;SDS011;15473;50.840;3.396;2022-11-11T04:25:43;28.80;;;11.18;;
28192;SDS011;15473;50.840;3.396;2022-11-11T04:28:26;25.02;;;11.93;;
28192;SDS011;15473;50.840;3.396;2022-11-11T04:31:21;26.07;;;11.50;;
28192;SDS011;15473;50.840;3.396;2022-11-11T04:33:58;25.88;;;12.90;;
28192;SDS011;15473;50.840;3.396;2022-11-11T04:36:32;27.15;;;12.28;;
28192;SDS011;15473;50.840;3.396;2022-11-11T04:39:03;22.40;;;11.93;;
28192;SDS011;15473;50.840;3.396;2022-11-11T04:41:51;20.15;;;11.10;;
28192;SDS011;15473;50.840;3.396;2022-11-11T04:44:21;19.90;;;11.28;;
28192;SDS011;15473;50.840;3.396;2022-11-11T04:47:09;21.75;;;12.10;;
28192;SDS011;15473;50.840;3.396;2022-11-11T04:49:39;26.97;;;12.50;;
28192;SDS011;15473;50.840;3.396;2022-11-11T04:52:09;25.15;;;12.23;;
28192;SDS011;15473;50.840;3.396;2022-11-11T04:54:55;27.45;;;12.23;;
28192;SDS011;15473;50.840;3.396;2022-11-11T04:58:03;28.45;;;11.97;;
28192;SDS011;15473;50.840;3.396;2022-11-11T05:00:34;30.37;;;12.20;;
28192;SDS011;15473;50.840;3.396;2022-11-11T05:03:08;24.12;;;11.40;;
28192;SDS011;15473;50.840;3.396;2022-11-11T05:05:55;23.45;;;12.25;;
28192;SDS011;15473;50.840;3.396;2022-11-11T05:11:33;28.32;;;12.90;;
28192;SDS011;15473;50.840;3.396;2022-11-11T05:14:05;18.65;;;10.78;;
28192;SDS011;15473;50.840;3.396;2022-11-11T05:16:54;20.32;;;11.55;;
28192;SDS011;15473;50.840;3.396;2022-11-11T05:19:44;26.85;;;11.40;;
28192;SDS011;15473;50.840;3.396;2022-11-11T05:22:39;24.57;;;11.73;;
28192;SDS011;15473;50.840;3.396;2022-11-11T05:25:11;24.75;;;11.63;;
28192;SDS011;15473;50.840;3.396;2022-11-11T05:27:57;22.13;;;11.57;;
28192;SDS011;15473;50.840;3.396;2022-11-11T05:30:31;21.20;;;10.88;;
28192;SDS011;15473;50.840;3.396;2022-11-11T05:33:02;20.43;;;11.45;;
28192;SDS011;15473;50.840;3.396;2022-11-11T05:35:32;20.77;;;10.98;;
28192;SDS011;15473;50.840;3.396;2022-11-11T05:38:03;18.75;;;10.55;;
28192;SDS011;15473;50.840;3.396;2022-11-11T05:40:49;22.27;;;11.57;;
28192;SDS011;15473;50.840;3.396;2022-11-11T05:43:19;21.48;;;10.70;;
28192;SDS011;15473;50.840;3.396;2022-11-11T05:45:49;21.68;;;10.65;;
28192;SDS011;15473;50.840;3.396;2022-11-11T05:48:19;26.07;;;11.53;;
28192;SDS011;15473;50.840;3.396;2022-11-11T05:50:49;15.65;;;9.73;;
28192;SDS011;15473;50.840;3.396;2022-11-11T05:53:19;21.40;;;11.25;;
28192;SDS011;15473;50.840;3.396;2022-11-11T05:55:51;22.45;;;11.28;;
28192;SDS011;15473;50.840;3.396;2022-11-11T05:58:21;19.12;;;10.25;;
28192;SDS011;15473;50.840;3.396;2022-11-11T06:00:51;22.02;;;10.78;;
28192;SDS011;15473;50.840;3.396;2022-11-11T06:03:22;19.40;;;11.63;;
28192;SDS011;15473;50.840;3.396;2022-11-11T06:05:53;20.43;;;10.30;;
28192;SDS011;15473;50.840;3.396;2022-11-11T06:08:23;20.08;;;10.93;;
28192;SDS011;15473;50.840;3.396;2022-11-11T06:10:53;21.37;;;9.75;;
28192;SDS011;15473;50.840;3.396;2022-11-11T06:13:23;18.23;;;9.85;;
28192;SDS011;15473;50.840;3.396;2022-11-11T06:15:59;20.52;;;8.98;;
28192;SDS011;15473;50.840;3.396;2022-11-11T06:18:30;20.60;;;9.68;;
28192;SDS011;15473;50.840;3.396;2022-11-11T06:21:08;19.92;;;9.53;;
28192;SDS011;15473;50.840;3.396;2022-11-11T06:23:39;17.52;;;9.35;;
28192;SDS011;15473;50.840;3.396;2022-11-11T06:26:15;17.65;;;9.48;;
28192;SDS011;15473;50.840;3.396;2022-11-11T06:28:48;20.62;;;8.75;;
28192;SDS011;15473;50.840;3.396;2022-11-11T06:33:57;14.75;;;8.73;;
28192;SDS011;15473;50.840;3.396;2022-11-11T06:36:27;17.70;;;8.95;;
28192;SDS011;15473;50.840;3.396;2022-11-11T06:38:58;20.48;;;9.00;;
28192;SDS011;15473;50.840;3.396;2022-11-11T06:41:29;19.00;;;9.30;;
28192;SDS011;15473;50.840;3.396;2022-11-11T06:44:00;20.15;;;8.85;;
28192;SDS011;15473;50.840;3.396;2022-11-11T06:46:37;23.83;;;9.60;;
28192;SDS011;15473;50.840;3.396;2022-11-11T06:49:06;16.23;;;9.45;;
28192;SDS011;15473;50.840;3.396;2022-11-11T06:51:43;18.12;;;8.78;;
28192;SDS011;15473;50.840;3.396;2022-11-11T06:54:14;18.30;;;9.63;;
28192;SDS011;15473;50.840;3.396;2022-11-11T06:56:46;14.25;;;8.90;;
28192;SDS011;15473;50.840;3.396;2022-11-11T06:59:22;15.98;;;8.25;;
28192;SDS011;15473;50.840;3.396;2022-11-11T07:01:52;15.03;;;8.65;;
28192;SDS011;15473;50.840;3.396;2022-11-11T07:04:22;13.05;;;8.13;;
28192;SDS011;15473;50.840;3.396;2022-11-11T07:06:52;12.53;;;7.60;;
28192;SDS011;15473;50.840;3.396;2022-11-11T07:09:24;15.83;;;8.10;;
28192;SDS011;15473;50.840;3.396;2022-11-11T07:11:56;14.87;;;7.97;;
28192;SDS011;15473;50.840;3.396;2022-11-11T07:14:26;12.55;;;7.20;;
28192;SDS011;15473;50.840;3.396;2022-11-11T07:16:56;12.65;;;6.55;;
28192;SDS011;15473;50.840;3.396;2022-11-11T07:19:26;11.88;;;7.42;;
28192;SDS011;15473;50.840;3.396;2022-11-11T07:21:56;17.12;;;7.53;;
28192;SDS011;15473;50.840;3.396;2022-11-11T07:24:26;11.70;;;7.05;;
28192;SDS011;15473;50.840;3.396;2022-11-11T07:26:56;18.60;;;8.13;;
28192;SDS011;15473;50.840;3.396;2022-11-11T07:29:28;10.48;;;7.33;;
28192;SDS011;15473;50.840;3.396;2022-11-11T07:31:59;15.13;;;6.92;;
28192;SDS011;15473;50.840;3.396;2022-11-11T07:34:30;14.25;;;7.45;;
28192;SDS011;15473;50.840;3.396;2022-11-11T07:37:00;18.30;;;7.97;;
28192;SDS011;15473;50.840;3.396;2022-11-11T07:39:31;14.07;;;7.12;;
28192;SDS011;15473;50.840;3.396;2022-11-11T07:42:08;14.45;;;7.37;;
28192;SDS011;15473;50.840;3.396;2022-11-11T07:44:38;11.33;;;5.72;;
28192;SDS011;15473;50.840;3.396;2022-11-11T07:47:10;10.15;;;7.10;;
28192;SDS011;15473;50.840;3.396;2022-11-11T07:49:40;9.90;;;6.30;;
28192;SDS011;15473;50.840;3.396;2022-11-11T07:52:11;10.05;;;6.35;;
28192;SDS011;15473;50.840;3.396;2022-11-11T07:54:49;11.12;;;5.42;;
28192;SDS011;15473;50.840;3.396;2022-11-11T07:57:19;14.65;;;7.37;;
28192;SDS011;15473;50.840;3.396;2022-11-11T07:59:56;9.53;;;6.40;;
28192;SDS011;15473;50.840;3.396;2022-11-11T08:02:26;11.15;;;6.53;;
28192;SDS011;15473;50.840;3.396;2022-11-11T08:04:56;13.90;;;6.22;;
28192;SDS011;15473;50.840;3.396;2022-11-11T08:07:26;9.23;;;5.15;;
28192;SDS011;15473;50.840;3.396;2022-11-11T08:09:56;10.13;;;5.60;;
28192;SDS011;15473;50.840;3.396;2022-11-11T08:12:26;13.35;;;6.08;;
28192;SDS011;15473;50.840;3.396;2022-11-11T08:15:14;8.98;;;6.08;;
28192;SDS011;15473;50.840;3.396;2022-11-11T08:17:44;9.85;;;5.58;;
28192;SDS011;15473;50.840;3.396;2022-11-11T08:20:15;9.13;;;5.65;;
28192;SDS011;15473;50.840;3.396;2022-11-11T08:22:46;8.98;;;5.55;;
28192;SDS011;15473;50.840;3.396;2022-11-11T08:25:18;13.78;;;6.20;;
28192;SDS011;15473;50.840;3.396;2022-11-11T08:27:56;10.20;;;5.85;;
28192;SDS011;15473;50.840;3.396;2022-11-11T08:30:30;15.32;;;6.65;;
28192;SDS011;15473;50.840;3.396;2022-11-11T08:33:06;16.57;;;6.95;;
28192;SDS011;15473;50.840;3.396;2022-11-11T08:35:35;10.32;;;5.60;;
28192;SDS011;15473;50.840;3.396;2022-11-11T08:38:05;14.03;;;6.60;;
28192;SDS011;15473;50.840;3.396;2022-11-11T08:40:42;12.70;;;6.55;;
28192;SDS011;15473;50.840;3.396;2022-11-11T08:43:14;9.03;;;5.75;;
28192;SDS011;15473;50.840;3.396;2022-11-11T08:45:44;14.93;;;5.92;;
28192;SDS011;15473;50.840;3.396;2022-11-11T08:48:14;11.03;;;6.12;;
28192;SDS011;15473;50.840;3.396;2022-11-11T08:50:44;11.08;;;5.53;;
28192;SDS011;15473;50.840;3.396;2022-11-11T08:53:14;11.50;;;5.92;;
28192;SDS011;15473;50.840;3.396;2022-11-11T08:55:44;11.88;;;6.40;;
28192;SDS011;15473;50.840;3.396;2022-11-11T08:58:14;14.05;;;5.97;;
28192;SDS011;15473;50.840;3.396;2022-11-11T09:00:51;10.03;;;6.03;;
28192;SDS011;15473;50.840;3.396;2022-11-11T09:03:21;9.35;;;6.50;;
28192;SDS011;15473;50.840;3.396;2022-11-11T09:05:51;13.08;;;6.40;;
28192;SDS011;15473;50.840;3.396;2022-11-11T09:08:21;13.10;;;6.42;;
28192;SDS011;15473;50.840;3.396;2022-11-11T09:10:52;10.78;;;6.50;;
28192;SDS011;15473;50.840;3.396;2022-11-11T09:13:28;10.03;;;6.12;;
28192;SDS011;15473;50.840;3.396;2022-11-11T09:15:58;9.95;;;6.00;;
28192;SDS011;15473;50.840;3.396;2022-11-11T09:18:29;9.20;;;5.75;;
28192;SDS011;15473;50.840;3.396;2022-11-11T09:21:00;12.50;;;6.78;;
28192;SDS011;15473;50.840;3.396;2022-11-11T09:23:30;13.00;;;5.78;;
28192;SDS011;15473;50.840;3.396;2022-11-11T09:26:00;14.35;;;7.65;;
28192;SDS011;15473;50.840;3.396;2022-11-11T09:28:32;10.90;;;6.70;;
28192;SDS011;15473;50.840;3.396;2022-11-11T09:31:03;9.50;;;6.40;;
28192;SDS011;15473;50.840;3.396;2022-11-11T09:33:33;15.88;;;7.80;;
28192;SDS011;15473;50.840;3.396;2022-11-11T09:36:04;16.82;;;7.87;;
28192;SDS011;15473;50.840;3.396;2022-11-11T09:38:34;14.33;;;7.87;;
28192;SDS011;15473;50.840;3.396;2022-11-11T09:41:17;14.43;;;8.03;;
28192;SDS011;15473;50.840;3.396;2022-11-11T09:43:51;14.07;;;7.47;;
28192;SDS011;15473;50.840;3.396;2022-11-11T09:49:42;14.25;;;8.43;;
28192;SDS011;15473;50.840;3.396;2022-11-11T09:52:31;15.83;;;8.08;;
28192;SDS011;15473;50.840;3.396;2022-11-11T09:57:55;12.82;;;8.18;;
28192;SDS011;15473;50.840;3.396;2022-11-11T10:00:57;15.43;;;8.25;;
28192;SDS011;15473;50.840;3.396;2022-11-11T10:03:33;17.85;;;9.63;;
28192;SDS011;15473;50.840;3.396;2022-11-11T10:06:07;16.75;;;10.05;;
28192;SDS011;15473;50.840;3.396;2022-11-11T10:08:41;13.78;;;8.73;;
28192;SDS011;15473;50.840;3.396;2022-11-11T10:11:26;20.20;;;8.63;;
28192;SDS011;15473;50.840;3.396;2022-11-11T10:14:37;17.95;;;8.55;;
28192;SDS011;15473;50.840;3.396;2022-11-11T10:17:13;13.00;;;7.00;;
28192;SDS011;15473;50.840;3.396;2022-11-11T10:19:50;13.40;;;7.00;;
28192;SDS011;15473;50.840;3.396;2022-11-11T10:22:22;11.20;;;6.65;;
28192;SDS011;15473;50.840;3.396;2022-11-11T10:28:03;17.67;;;9.17;;
28192;SDS011;15473;50.840;3.396;2022-11-11T10:30:34;15.10;;;8.65;;
28192;SDS011;15473;50.840;3.396;2022-11-11T10:35:51;17.15;;;8.40;;
28192;SDS011;15473;50.840;3.396;2022-11-11T10:38:44;14.03;;;8.80;;
28192;SDS011;15473;50.840;3.396;2022-11-11T10:41:48;16.12;;;8.93;;
28192;SDS011;15473;50.840;3.396;2022-11-11T10:44:31;13.85;;;9.10;;
28192;SDS011;15473;50.840;3.396;2022-11-11T10:46:59;14.53;;;8.80;;
28192;SDS011;15473;50.840;3.396;2022-11-11T10:49:40;16.23;;;8.50;;
28192;SDS011;15473;50.840;3.396;2022-11-11T10:52:15;14.35;;;8.28;;
28192;SDS011;15473;50.840;3.396;2022-11-11T10:55:03;17.12;;;8.18;;
28192;SDS011;15473;50.840;3.396;2022-11-11T10:57:58;11.43;;;7.37;;
28192;SDS011;15473;50.840;3.396;2022-11-11T11:00:42;13.70;;;7.65;;
28192;SDS011;15473;50.840;3.396;2022-11-11T11:03:15;15.88;;;8.00;;
28192;SDS011;15473;50.840;3.396;2022-11-11T11:05:57;11.95;;;7.10;;
28192;SDS011;15473;50.840;3.396;2022-11-11T11:08:41;12.18;;;7.50;;
28192;SDS011;15473;50.840;3.396;2022-11-11T11:11:24;9.90;;;5.62;;
28192;SDS011;15473;50.840;3.396;2022-11-11T11:14:05;11.48;;;6.87;;
28192;SDS011;15473;50.840;3.396;2022-11-11T11:16:52;11.20;;;6.72;;
28192;SDS011;15473;50.840;3.396;2022-11-11T11:19:29;13.25;;;7.50;;
28192;SDS011;15473;50.840;3.396;2022-11-11T11:22:17;9.03;;;6.40;;
28192;SDS011;15473;50.840;3.396;2022-11-11T11:25:00;10.30;;;6.47;;
28192;SDS011;15473;50.840;3.396;2022-11-11T11:27:30;8.35;;;5.53;;
28192;SDS011;15473;50.840;3.396;2022-11-11T11:30:08;9.55;;;5.45;;
28192;SDS011;15473;50.840;3.396;2022-11-11T11:32:41;7.87;;;5.05;;
28192;SDS011;15473;50.840;3.396;2022-11-11T11:35:32;7.33;;;4.15;;
28192;SDS011;15473;50.840;3.396;2022-11-11T11:38:11;7.47;;;4.70;;
28192;SDS011;15473;50.840;3.396;2022-11-11T11:41:01;7.03;;;4.33;;
28192;SDS011;15473;50.840;3.396;2022-11-11T11:46:26;8.13;;;4.53;;
28192;SDS011;15473;50.840;3.396;2022-11-11T11:48:56;7.87;;;4.70;;
28192;SDS011;15473;50.840;3.396;2022-11-11T11:52:10;8.00;;;4.35;;
28192;SDS011;15473;50.840;3.396;2022-11-11T12:00:23;11.50;;;4.47;;
28192;SDS011;15473;50.840;3.396;2022-11-11T12:03:25;6.65;;;3.58;;
28192;SDS011;15473;50.840;3.396;2022-11-11T12:06:13;6.55;;;3.67;;
28192;SDS011;15473;50.840;3.396;2022-11-11T12:09:00;7.85;;;4.37;;
28192;SDS011;15473;50.840;3.396;2022-11-11T12:15:03;8.48;;;5.72;;
28192;SDS011;15473;50.840;3.396;2022-11-11T12:20:39;6.90;;;4.12;;
28192;SDS011;15473;50.840;3.396;2022-11-11T12:29:07;8.75;;;4.25;;
28192;SDS011;15473;50.840;3.396;2022-11-11T12:31:47;12.03;;;4.12;;
28192;SDS011;15473;50.840;3.396;2022-11-11T12:34:37;6.97;;;4.67;;
28192;SDS011;15473;50.840;3.396;2022-11-11T12:37:42;7.00;;;3.50;;
28192;SDS011;15473;50.840;3.396;2022-11-11T12:40:35;8.60;;;4.05;;
28192;SDS011;15473;50.840;3.396;2022-11-11T12:49:13;7.22;;;3.67;;
28192;SDS011;15473;50.840;3.396;2022-11-11T12:52:02;6.30;;;3.37;;
28192;SDS011;15473;50.840;3.396;2022-11-11T12:57:33;4.80;;;3.67;;
28192;SDS011;15473;50.840;3.396;2022-11-11T13:00:20;10.30;;;4.05;;
28192;SDS011;15473;50.840;3.396;2022-11-11T13:05:48;7.00;;;3.70;;
28192;SDS011;15473;50.840;3.396;2022-11-11T13:11:46;6.45;;;3.60;;
28192;SDS011;15473;50.840;3.396;2022-11-11T13:14:22;4.87;;;3.42;;
28192;SDS011;15473;50.840;3.396;2022-11-11T13:17:11;5.80;;;3.65;;
28192;SDS011;15473;50.840;3.396;2022-11-11T13:19:43;7.42;;;4.00;;
28192;SDS011;15473;50.840;3.396;2022-11-11T13:22:25;7.60;;;3.85;;
28192;SDS011;15473;50.840;3.396;2022-11-11T13:25:01;6.05;;;4.03;;
28192;SDS011;15473;50.840;3.396;2022-11-11T13:30:28;8.95;;;4.33;;
28192;SDS011;15473;50.840;3.396;2022-11-11T13:33:35;6.90;;;4.20;;
28192;SDS011;15473;50.840;3.396;2022-11-11T13:36:07;5.42;;;3.90;;
28192;SDS011;15473;50.840;3.396;2022-11-11T13:41:20;5.45;;;3.70;;
28192;SDS011;15473;50.840;3.396;2022-11-11T13:44:05;7.83;;;4.00;;
28192;SDS011;15473;50.840;3.396;2022-11-11T13:46:43;5.85;;;3.70;;
28192;SDS011;15473;50.840;3.396;2022-11-11T13:49:35;7.65;;;3.90;;
28192;SDS011;15473;50.840;3.396;2022-11-11T13:52:26;9.85;;;4.25;;
28192;SDS011;15473;50.840;3.396;2022-11-11T13:55:08;11.78;;;4.83;;
28192;SDS011;15473;50.840;3.396;2022-11-11T13:58:00;6.90;;;4.10;;
28192;SDS011;15473;50.840;3.396;2022-11-11T14:00:33;9.60;;;5.08;;
28192;SDS011;15473;50.840;3.396;2022-11-11T14:03:29;8.37;;;4.73;;
28192;SDS011;15473;50.840;3.396;2022-11-11T14:05:48;7.58;;;5.00;;
28192;SDS011;15473;50.840;3.396;2022-11-11T14:17:04;8.40;;;4.45;;
28192;SDS011;15473;50.840;3.396;2022-11-11T14:19:37;8.80;;;4.50;;
28192;SDS011;15473;50.840;3.396;2022-11-11T14:22:26;9.23;;;5.15;;
28192;SDS011;15473;50.840;3.396;2022-11-11T14:25:14;12.37;;;5.55;;
28192;SDS011;15473;50.840;3.396;2022-11-11T14:27:42;9.73;;;5.37;;
28192;SDS011;15473;50.840;3.396;2022-11-11T14:33:14;10.38;;;6.30;;
28192;SDS011;15473;50.840;3.396;2022-11-11T14:35:56;8.05;;;4.90;;
28192;SDS011;15473;50.840;3.396;2022-11-11T14:38:49;10.45;;;5.08;;
28192;SDS011;15473;50.840;3.396;2022-11-11T14:41:45;12.35;;;5.28;;
28192;SDS011;15473;50.840;3.396;2022-11-11T14:49:57;8.23;;;5.50;;
28192;SDS011;15473;50.840;3.396;2022-11-11T14:55:14;9.80;;;6.20;;
28192;SDS011;15473;50.840;3.396;2022-11-11T14:58:07;9.93;;;6.12;;
28192;SDS011;15473;50.840;3.396;2022-11-11T15:00:48;10.00;;;5.75;;
28192;SDS011;15473;50.840;3.396;2022-11-11T15:03:36;11.40;;;5.72;;
28192;SDS011;15473;50.840;3.396;2022-11-11T15:06:24;11.48;;;6.55;;
28192;SDS011;15473;50.840;3.396;2022-11-11T15:11:41;8.58;;;6.03;;
28192;SDS011;15473;50.840;3.396;2022-11-11T15:14:20;9.53;;;6.10;;
28192;SDS011;15473;50.840;3.396;2022-11-11T15:16:54;13.15;;;6.37;;
28192;SDS011;15473;50.840;3.396;2022-11-11T15:28:31;10.95;;;5.75;;
28192;SDS011;15473;50.840;3.396;2022-11-11T15:31:18;11.63;;;5.90;;
28192;SDS011;15473;50.840;3.396;2022-11-11T15:37:00;12.85;;;5.70;;
28192;SDS011;15473;50.840;3.396;2022-11-11T15:39:45;9.23;;;5.62;;
28192;SDS011;15473;50.840;3.396;2022-11-11T15:42:29;10.90;;;5.85;;
28192;SDS011;15473;50.840;3.396;2022-11-11T15:47:51;11.78;;;5.25;;
28192;SDS011;15473;50.840;3.396;2022-11-11T15:55:40;14.38;;;6.22;;
28192;SDS011;15473;50.840;3.396;2022-11-11T15:58:15;10.72;;;5.30;;
28192;SDS011;15473;50.840;3.396;2022-11-11T16:00:49;15.72;;;5.87;;
28192;SDS011;15473;50.840;3.396;2022-11-11T16:03:42;8.35;;;5.35;;
28192;SDS011;15473;50.840;3.396;2022-11-11T16:05:59;7.78;;;5.15;;
28192;SDS011;15473;50.840;3.396;2022-11-11T16:08:32;11.55;;;6.28;;
28192;SDS011;15473;50.840;3.396;2022-11-11T16:11:02;9.65;;;5.97;;
28192;SDS011;15473;50.840;3.396;2022-11-11T16:13:33;10.53;;;6.25;;
28192;SDS011;15473;50.840;3.396;2022-11-11T16:16:10;12.18;;;6.37;;
28192;SDS011;15473;50.840;3.396;2022-11-11T16:18:42;10.70;;;6.92;;
28192;SDS011;15473;50.840;3.396;2022-11-11T16:21:25;15.63;;;7.25;;
28192;SDS011;15473;50.840;3.396;2022-11-11T16:23:56;12.10;;;6.78;;
28192;SDS011;15473;50.840;3.396;2022-11-11T16:26:31;12.20;;;6.92;;
28192;SDS011;15473;50.840;3.396;2022-11-11T16:29:02;13.85;;;7.10;;
28192;SDS011;15473;50.840;3.396;2022-11-11T16:37:07;13.93;;;7.65;;
28192;SDS011;15473;50.840;3.396;2022-11-11T16:39:43;15.48;;;7.60;;
28192;SDS011;15473;50.840;3.396;2022-11-11T16:42:18;16.35;;;7.28;;
28192;SDS011;15473;50.840;3.396;2022-11-11T16:45:02;13.93;;;7.30;;
28192;SDS011;15473;50.840;3.396;2022-11-11T16:47:40;14.63;;;8.60;;
28192;SDS011;15473;50.840;3.396;2022-11-11T16:50:18;12.60;;;7.83;;
28192;SDS011;15473;50.840;3.396;2022-11-11T16:55:34;17.23;;;7.78;;
28192;SDS011;15473;50.840;3.396;2022-11-11T16:58:15;13.28;;;6.72;;
28192;SDS011;15473;50.840;3.396;2022-11-11T17:00:47;12.05;;;7.90;;
28192;SDS011;15473;50.840;3.396;2022-11-11T17:03:21;17.37;;;7.90;;
28192;SDS011;15473;50.840;3.396;2022-11-11T17:06:02;14.75;;;7.12;;
28192;SDS011;15473;50.840;3.396;2022-11-11T17:08:40;13.05;;;7.22;;
28192;SDS011;15473;50.840;3.396;2022-11-11T17:14:11;15.85;;;8.68;;
28192;SDS011;15473;50.840;3.396;2022-11-11T17:16:42;13.28;;;6.80;;
28192;SDS011;15473;50.840;3.396;2022-11-11T17:19:12;9.13;;;6.67;;
28192;SDS011;15473;50.840;3.396;2022-11-11T17:21:43;12.03;;;7.22;;
28192;SDS011;15473;50.840;3.396;2022-11-11T17:24:13;19.05;;;7.08;;